LFLN/SYT METAR and TAF weather

Enter ICAO airport designator
Station Type Date Time Source
LFLN METAR 2018/12/15 21:00 UTC NOAA

LFLN 152100Z AUTO 08001KT 3500 RA BR BKN029/// OVC035/// ///TCU 01/01 Q1015 TEMPO 2000 RA BKN004 OVC010


Station Type Date Time Source
LFLN Decoded METAR 2018/12/15 21:00 UTC NOAA

Saint-Yan, France (LFLN) 46-25N 004-01E 244M
Dec 15, 2018 - 04:00 PM EST / 2018.12.15 2100 UTC
Wind: from the E (080 degrees) at 1 MPH (1 KT):0
Visibility: 2 mile(s):0
Sky conditions: overcast
Weather: rain; mist; Towering cumulus clouds observed
Temperature: 33 F (1 C)
Dew Point: 33 F (1 C)
Relative Humidity: 100%
Pressure (altimeter): 29.97 in. Hg (1015 hPa)
ob: LFLN 152100Z AUTO 08001KT 3500 RA BR BKN029/// OVC035/// ///TCU 01/01 Q1015 TEMPO 2000 RA BKN004 OVC010
cycle: 21

Station Type Date Time Source
LFLN TAF UTC NOAA

Error!


Example: see airport list